Bennington, KS (67422)

6:17 AM CST on December 11, 2016 (GMT -0600)
4.5 miles North of Bennington | | Change Station

Elev 1289 ft 39.10 °N, 97.62 °W | Updated 34 seconds ago

Overcast
Overcast
37.8 °F
Feels Like 38 °F
N
2.0
Wind Variable Wind from NW

Today
High -- | Low -- °F
--% Chance of Precip.
Yesterday
High -- | Low -- °F
Precip. -- in
Pressure 29.71 in
Visibility 10.0 miles
Clouds Overcast 1300 ft
Windchill 38 °F
Dew Point 32 °F
Humidity 81%
Rainfall 0.00 in
Snow Depth Not available.
7:39 AM 5:08 PM
Waxing Gibbous, 91% visible
METAR KSLN 111153Z AUTO 01003KT 10SM OVC013 05/03 A2970 RMK AO2 SLP061 T00500028 10056 20011 55006
Pressure 29.71 in
Visibility 10.0 miles
Clouds Overcast 1300 ft
Windchill 38 °F
Dew Point 32 °F
Humidity 81%
Rainfall 0.00 in
Snow Depth Not available.
7:39 AM 5:08 PM
Waxing Gibbous, 91% visible
METAR KSLN 111153Z AUTO 01003KT 10SM OVC013 05/03 A2970 RMK AO2 SLP061 T00500028 10056 20011 55006

10-Day Weather Forecast

Almanac

Astronomy

Dec. 11, 2016 Rise Set
Actual Time
Civil Twilight
Nautical Twilight
Astronomical Twilight
Moon
Length of Visible Light
Length of Day
Tomorrow will be .
, % of the Moon is Illuminated

Today's Extremes

State Highs State Lows

Community

WunderPhotos

Upload Photos

1,956,710 photos uploaded!

WunderBlog® & News

Nearby

Air Quality

  Air Quality AQ Index Pollutant
Not available.

Snow Depth

Station Depth Elevation

Earthquake Activity

City Distance Mag. Time & Date
Minimum magnitude displayed is 2.5.

Coastal Water Temperatures

Place Temperature

Stations

Nearby Weather Stations

Station Location Temp. Windchill Dew Point Humidity Wind Precip. Elev Updated Type
                   

Watches & Warnings

There are currently no watches in effect.